createdAt,value
2023-04-15T00:00:35.418Z,8.65
2023-04-15T00:03:02.644Z,7.65
2023-04-15T00:05:33.320Z,5.13
2023-04-15T00:08:01.542Z,4.32
2023-04-15T00:10:28.966Z,5.28
2023-04-15T00:12:56.015Z,3.35
2023-04-15T00:15:23.455Z,4.30
2023-04-15T00:17:52.320Z,3.92
2023-04-15T00:20:19.432Z,4.43
2023-04-15T00:22:46.664Z,5.07
2023-04-15T00:25:13.823Z,7.30
2023-04-15T00:27:41.191Z,9.77
2023-04-15T00:30:08.616Z,7.13
2023-04-15T00:32:35.721Z,5.70
2023-04-15T00:35:03.260Z,6.88
2023-04-15T00:37:30.754Z,5.47
2023-04-15T00:39:57.811Z,6.55
2023-04-15T00:42:25.779Z,4.63
2023-04-15T00:44:53.152Z,4.07
2023-04-15T00:47:21.346Z,5.13
2023-04-15T00:49:48.530Z,3.83
2023-04-15T00:52:15.552Z,7.82
2023-04-15T00:54:42.707Z,7.10
2023-04-15T00:57:09.824Z,5.20
2023-04-15T00:59:37.293Z,6.50
2023-04-15T01:02:04.599Z,8.18
2023-04-15T01:04:32.277Z,5.43
2023-04-15T01:06:59.393Z,4.28
2023-04-15T01:09:26.545Z,5.95
2023-04-15T01:11:53.921Z,7.55
2023-04-15T01:14:22.062Z,5.03
2023-04-15T01:16:49.079Z,5.75
2023-04-15T01:19:18.216Z,6.72
2023-04-15T01:21:46.040Z,5.30
2023-04-15T01:24:16.784Z,4.97
2023-04-15T01:26:44.645Z,7.07
2023-04-15T01:29:11.800Z,6.13
2023-04-15T01:31:39.072Z,7.07
2023-04-15T01:34:06.270Z,5.93
2023-04-15T01:36:34.309Z,8.82
2023-04-15T01:39:01.583Z,6.55
2023-04-15T01:41:29.252Z,4.60
2023-04-15T01:43:56.791Z,7.28
2023-04-15T01:46:24.050Z,8.48
2023-04-15T01:48:51.170Z,7.40
2023-04-15T01:51:18.220Z,7.30
2023-04-15T01:53:45.687Z,6.15
2023-04-15T01:56:13.476Z,4.03
2023-04-15T01:58:41.964Z,7.65
2023-04-15T02:01:10.634Z,10.27
2023-04-15T02:03:39.671Z,5.35
2023-04-15T02:06:06.859Z,6.47
2023-04-15T02:08:34.259Z,7.40
2023-04-15T02:11:01.507Z,5.72
2023-04-15T02:13:28.492Z,6.22
2023-04-15T02:15:56.270Z,5.97
2023-04-15T02:18:23.651Z,7.43
2023-04-15T02:20:52.803Z,5.97
2023-04-15T02:23:20.044Z,6.90
2023-04-15T02:25:53.522Z,8.30
2023-04-15T02:28:21.814Z,3.95
2023-04-15T02:30:53.578Z,6.55
2023-04-15T02:33:22.159Z,5.32
2023-04-15T02:35:49.310Z,6.10
2023-04-15T02:38:18.021Z,6.03
2023-04-15T02:40:45.121Z,13.80
2023-04-15T02:43:12.370Z,6.78
2023-04-15T02:45:39.456Z,6.43
2023-04-15T02:48:06.814Z,4.60
2023-04-15T02:50:34.039Z,6.82
2023-04-15T02:53:01.844Z,6.38
2023-04-15T02:55:29.679Z,6.00
2023-04-15T02:57:58.558Z,5.75
2023-04-15T03:00:25.650Z,9.80
2023-04-15T03:02:57.924Z,8.07
2023-04-15T03:05:25.625Z,8.90
2023-04-15T03:07:53.298Z,6.88
2023-04-15T03:10:21.018Z,6.40
2023-04-15T03:12:48.376Z,9.05
2023-04-15T03:15:15.830Z,6.45
2023-04-15T03:17:42.874Z,6.18
2023-04-15T03:20:10.620Z,7.97
2023-04-15T03:22:37.772Z,8.35
2023-04-15T03:25:05.270Z,10.50
2023-04-15T03:27:32.430Z,8.18
2023-04-15T03:29:59.432Z,8.88
2023-04-15T03:32:27.378Z,11.70
2023-04-15T03:34:54.498Z,10.07
2023-04-15T03:37:21.829Z,10.93
2023-04-15T03:39:48.857Z,12.27
2023-04-15T03:42:15.886Z,8.63
2023-04-15T03:44:43.024Z,9.63
2023-04-15T03:47:10.006Z,10.68
2023-04-15T03:49:37.468Z,9.27
2023-04-15T03:52:04.595Z,8.55
2023-04-15T03:54:31.762Z,9.27
2023-04-15T03:56:58.852Z,8.15
2023-04-15T03:59:26.132Z,10.75
2023-04-15T04:01:53.262Z,9.82
2023-04-15T04:04:20.471Z,9.43
2023-04-15T04:06:47.558Z,9.65
2023-04-15T04:09:14.553Z,9.68
2023-04-15T04:11:41.648Z,9.25
2023-04-15T04:14:08.628Z,8.73
2023-04-15T04:16:35.942Z,7.93
2023-04-15T04:19:03.277Z,10.70
2023-04-15T04:21:31.041Z,8.70
2023-04-15T04:23:59.163Z,10.90
2023-04-15T04:26:26.394Z,10.48
2023-04-15T04:28:53.475Z,11.02
2023-04-15T04:31:20.569Z,9.48
2023-04-15T04:33:47.596Z,12.82
2023-04-15T04:36:14.613Z,7.07
2023-04-15T04:38:41.752Z,11.95
2023-04-15T04:41:08.784Z,12.35
2023-04-15T04:43:36.109Z,10.02
2023-04-15T04:46:03.124Z,9.63
2023-04-15T04:48:30.268Z,9.75
2023-04-15T04:50:57.451Z,10.02
2023-04-15T04:53:24.502Z,10.80
2023-04-15T04:55:51.809Z,9.02
2023-04-15T04:58:18.861Z,11.00
2023-04-15T05:00:46.102Z,10.63
2023-04-15T05:03:13.336Z,12.82
2023-04-15T05:05:41.293Z,13.55
2023-04-15T05:08:08.338Z,14.05
2023-04-15T05:10:35.484Z,10.77
2023-04-15T05:13:02.555Z,8.77
2023-04-15T05:15:29.642Z,8.95
2023-04-15T05:17:57.089Z,8.35
2023-04-15T05:20:24.238Z,8.65
2023-04-15T05:22:51.297Z,14.13
2023-04-15T05:25:18.482Z,13.65
2023-04-15T05:27:45.572Z,10.82
2023-04-15T05:30:13.816Z,12.52
2023-04-15T05:32:41.132Z,12.13
2023-04-15T05:35:08.724Z,11.32
2023-04-15T05:37:35.781Z,12.82
2023-04-15T05:40:02.860Z,9.30
2023-04-15T05:42:29.874Z,9.68
2023-04-15T05:44:56.942Z,11.55
2023-04-15T05:47:24.064Z,8.73
2023-04-15T05:49:51.197Z,9.63
2023-04-15T05:52:18.349Z,9.63
2023-04-15T05:54:45.390Z,10.35
2023-04-15T05:57:12.409Z,11.18
2023-04-15T05:59:39.474Z,10.80
2023-04-15T06:02:07.738Z,7.75
2023-04-15T06:04:35.047Z,9.50
2023-04-15T06:07:02.106Z,10.25
2023-04-15T06:09:29.250Z,6.93
2023-04-15T06:11:57.134Z,8.73
2023-04-15T06:14:24.152Z,12.23
2023-04-15T06:16:51.610Z,9.60
2023-04-15T06:19:19.529Z,8.65
2023-04-15T06:21:46.788Z,8.73
2023-04-15T06:24:14.036Z,7.60
2023-04-15T06:26:41.200Z,7.05
2023-04-15T06:29:08.239Z,7.70
2023-04-15T06:31:35.327Z,7.43
2023-04-15T06:34:02.473Z,9.10
2023-04-15T06:36:29.577Z,8.40
2023-04-15T06:38:57.264Z,8.85
2023-04-15T06:41:24.611Z,9.30
2023-04-15T06:43:51.734Z,9.43
2023-04-15T06:46:21.860Z,8.25
2023-04-15T06:48:49.099Z,9.15
2023-04-15T06:51:16.467Z,8.90
2023-04-15T06:53:44.027Z,10.05
2023-04-15T06:56:11.182Z,10.20
2023-04-15T06:58:38.333Z,10.07
2023-04-15T07:01:05.514Z,11.98
2023-04-15T07:03:33.068Z,9.32
2023-04-15T07:06:01.664Z,9.15
2023-04-15T07:08:28.807Z,8.52
2023-04-15T07:10:55.907Z,7.95
2023-04-15T07:13:22.907Z,8.90
2023-04-15T07:15:49.883Z,8.68
2023-04-15T07:18:16.948Z,9.95
2023-04-15T07:20:44.320Z,8.90
2023-04-15T07:23:11.526Z,8.25
2023-04-15T07:25:38.554Z,9.25
2023-04-15T07:28:05.875Z,11.57
2023-04-15T07:30:33.359Z,8.93
2023-04-15T07:33:00.510Z,8.70
2023-04-15T07:35:27.754Z,10.02
2023-04-15T07:37:54.874Z,10.63
2023-04-15T07:40:22.589Z,8.25
2023-04-15T07:42:49.791Z,7.95
2023-04-15T07:45:17.424Z,9.05
2023-04-15T07:47:44.455Z,8.15
2023-04-15T07:50:11.698Z,13.18
2023-04-15T07:52:39.626Z,7.28
2023-04-15T07:55:10.960Z,8.70
2023-04-15T07:57:38.145Z,6.80
2023-04-15T08:00:07.820Z,7.47
2023-04-15T08:02:38.157Z,5.78
2023-04-15T08:05:07.920Z,5.90
2023-04-15T08:07:35.175Z,6.28
2023-04-15T08:10:02.199Z,6.85
2023-04-15T08:12:29.281Z,5.18
2023-04-15T08:14:57.479Z,7.47
2023-04-15T08:17:25.064Z,5.82
2023-04-15T08:19:52.414Z,5.13
2023-04-15T08:22:20.617Z,5.97
2023-04-15T08:24:48.980Z,3.90
2023-04-15T08:27:16.082Z,5.03
2023-04-15T08:29:43.205Z,4.32
2023-04-15T08:32:16.101Z,4.63
2023-04-15T08:34:43.389Z,4.68
2023-04-15T08:37:11.483Z,5.80
2023-04-15T08:39:39.679Z,4.28
2023-04-15T08:42:13.914Z,4.38
2023-04-15T08:47:09.558Z,2.92
2023-04-15T08:49:40.250Z,2.35
2023-04-15T08:52:07.890Z,2.35
2023-04-15T08:54:35.826Z,2.95
2023-04-15T08:57:04.023Z,3.63
2023-04-15T08:59:32.170Z,2.70
2023-04-15T09:01:59.576Z,3.85
2023-04-15T09:04:28.170Z,3.13
2023-04-15T09:06:55.185Z,4.78
2023-04-15T09:09:22.829Z,3.35
2023-04-15T09:11:51.620Z,3.92
2023-04-15T09:14:18.663Z,4.10
2023-04-15T09:17:00.211Z,3.17
2023-04-15T09:19:27.938Z,3.70
2023-04-15T09:21:58.946Z,2.78
2023-04-15T09:24:34.404Z,4.35
2023-04-15T09:27:01.715Z,3.72
2023-04-15T09:29:28.693Z,2.75
2023-04-15T09:31:55.819Z,2.53
2023-04-15T09:34:36.062Z,3.13
2023-04-15T09:37:03.621Z,5.25
2023-04-15T09:39:50.697Z,2.10
2023-04-15T09:42:24.455Z,2.15
2023-04-15T09:44:56.192Z,3.85
2023-04-15T09:47:31.594Z,2.20
2023-04-15T09:50:01.024Z,2.72
2023-04-15T09:52:28.954Z,2.45
2023-04-15T09:54:58.694Z,3.15
2023-04-15T09:57:25.994Z,1.50
2023-04-15T09:59:53.148Z,1.73
2023-04-15T10:02:21.594Z,2.00
2023-04-15T10:04:49.961Z,1.60
2023-04-15T10:07:20.853Z,2.30
2023-04-15T10:09:49.413Z,2.25
2023-04-15T10:12:18.470Z,2.53
2023-04-15T10:14:48.349Z,2.20
2023-04-15T10:17:18.951Z,6.13
2023-04-15T10:19:47.290Z,2.92
2023-04-15T10:22:15.436Z,3.25
2023-04-15T10:24:45.562Z,4.60
2023-04-15T10:27:12.779Z,3.35
2023-04-15T10:29:40.320Z,3.85
2023-04-15T10:32:08.307Z,5.82
2023-04-15T10:34:35.967Z,4.80
2023-04-15T10:37:06.953Z,5.53
2023-04-15T10:39:40.164Z,5.35
2023-04-15T10:42:07.480Z,5.75
2023-04-15T10:44:36.913Z,5.28
2023-04-15T10:47:12.853Z,6.25
2023-04-15T10:49:58.102Z,5.13
2023-04-15T10:52:27.829Z,5.72
2023-04-15T10:55:19.982Z,6.43
2023-04-15T10:57:51.868Z,6.00
2023-04-15T11:00:20.557Z,10.85
2023-04-15T11:02:57.375Z,6.60
2023-04-15T11:05:53.931Z,5.65
2023-04-15T11:08:41.206Z,5.63
2023-04-15T11:11:08.669Z,5.95
2023-04-15T11:13:36.339Z,5.32
2023-04-15T11:16:07.704Z,4.82
2023-04-15T11:18:35.369Z,5.25
2023-04-15T11:21:06.776Z,5.95
2023-04-15T11:23:47.017Z,4.68
2023-04-15T11:26:15.024Z,4.82
2023-04-15T11:28:46.476Z,4.28
2023-04-15T11:31:16.708Z,5.55
2023-04-15T11:34:02.497Z,5.13
2023-04-15T11:36:32.751Z,3.55
2023-04-15T11:39:01.363Z,4.32
2023-04-15T11:41:30.675Z,3.22
2023-04-15T11:43:57.787Z,3.55
2023-04-15T11:46:34.569Z,3.22
2023-04-15T11:49:02.465Z,8.35
2023-04-15T11:51:34.846Z,4.20
2023-04-15T11:54:04.272Z,3.63
2023-04-15T11:56:33.408Z,4.75
2023-04-15T11:59:00.865Z,5.57
2023-04-15T12:01:42.966Z,5.65
2023-04-15T12:04:22.562Z,5.40
2023-04-15T12:06:52.143Z,5.78
2023-04-15T12:09:20.570Z,6.25
2023-04-15T12:11:50.318Z,7.85
2023-04-15T12:14:34.159Z,7.90
2023-04-15T12:17:05.947Z,7.35
2023-04-15T12:19:38.689Z,6.13
2023-04-15T12:22:11.178Z,6.57
2023-04-15T12:24:40.864Z,7.43
2023-04-15T12:27:14.706Z,6.57
2023-04-15T12:32:24.110Z,6.82
2023-04-15T12:34:53.721Z,7.30
2023-04-15T12:37:21.347Z,8.10
2023-04-15T12:39:50.161Z,8.40
2023-04-15T12:42:19.109Z,7.65
2023-04-15T12:44:48.929Z,8.65
2023-04-15T12:47:16.401Z,6.65
2023-04-15T12:49:44.097Z,7.18
2023-04-15T12:52:14.166Z,6.88
2023-04-15T12:54:42.709Z,7.45
2023-04-15T12:57:10.344Z,8.32
2023-04-15T12:59:38.739Z,6.50
2023-04-15T13:02:05.972Z,6.38
2023-04-15T13:04:34.112Z,7.15
2023-04-15T13:07:03.427Z,9.80
2023-04-15T13:09:31.680Z,11.23
2023-04-15T13:11:59.419Z,8.82
2023-04-15T13:14:31.450Z,7.55
2023-04-15T13:17:00.572Z,9.15
2023-04-15T13:19:28.989Z,8.23
2023-04-15T13:22:00.291Z,10.20
2023-04-15T13:24:27.386Z,9.38
2023-04-15T13:26:55.281Z,9.40
2023-04-15T13:29:22.510Z,10.40
2023-04-15T13:31:51.379Z,8.88
2023-04-15T13:34:18.601Z,10.50
2023-04-15T13:36:46.735Z,10.30
2023-04-15T13:39:15.001Z,11.45
2023-04-15T13:41:42.226Z,9.73
2023-04-15T13:44:12.554Z,10.55
2023-04-15T13:46:41.802Z,10.30
2023-04-15T13:49:10.572Z,11.35
2023-04-15T13:51:38.043Z,9.55
2023-04-15T13:54:05.824Z,9.23
2023-04-15T13:56:33.509Z,9.60
2023-04-15T13:59:03.799Z,10.63
2023-04-15T14:01:31.446Z,9.43
2023-04-15T14:03:58.655Z,9.43
2023-04-15T14:06:28.434Z,10.80
2023-04-15T14:08:56.863Z,10.57
2023-04-15T14:11:24.273Z,10.98
2023-04-15T14:13:51.958Z,12.43
2023-04-15T14:16:19.103Z,11.23
2023-04-15T14:18:48.047Z,12.63
2023-04-15T14:21:15.812Z,11.38
2023-04-15T14:23:43.041Z,12.02
2023-04-15T14:26:10.740Z,14.90
2023-04-15T14:28:39.639Z,13.88
2023-04-15T14:31:09.555Z,10.98
2023-04-15T14:33:39.723Z,13.27
2023-04-15T14:36:10.993Z,15.50
2023-04-15T14:38:41.363Z,14.23
2023-04-15T14:41:11.878Z,15.48
2023-04-15T14:43:40.103Z,14.43
2023-04-15T14:46:10.919Z,13.77
2023-04-15T14:48:38.660Z,14.70
2023-04-15T14:51:06.063Z,13.50
2023-04-15T14:53:33.615Z,17.42
2023-04-15T14:56:00.838Z,14.55
2023-04-15T14:58:27.902Z,13.85
2023-04-15T15:00:55.054Z,12.85
2023-04-15T15:03:23.238Z,13.63
2023-04-15T15:05:50.485Z,14.25
2023-04-15T15:08:17.720Z,14.73
2023-04-15T15:10:49.063Z,11.48
2023-04-15T15:13:17.464Z,10.85
2023-04-15T15:15:53.873Z,12.80
2023-04-15T15:18:22.534Z,12.65
2023-04-15T15:20:51.761Z,12.10
2023-04-15T15:23:27.328Z,11.68
2023-04-15T15:25:54.764Z,12.75
2023-04-15T15:28:22.283Z,9.63
2023-04-15T15:30:50.899Z,9.35
2023-04-15T15:33:19.624Z,9.98
2023-04-15T15:35:50.621Z,10.10
2023-04-15T15:38:21.871Z,9.65
2023-04-15T15:40:50.932Z,8.98
2023-04-15T15:43:19.101Z,9.07
2023-04-15T15:45:46.590Z,7.20
2023-04-15T15:48:14.075Z,8.48
2023-04-15T15:50:41.451Z,9.02
2023-04-15T15:53:09.081Z,8.38
2023-04-15T15:55:36.250Z,9.15
2023-04-15T15:58:03.422Z,10.18
2023-04-15T16:00:34.544Z,10.30
2023-04-15T16:03:07.166Z,8.60
2023-04-15T16:05:36.929Z,11.07
2023-04-15T16:08:04.426Z,9.68
2023-04-15T16:10:33.282Z,7.88
2023-04-15T16:13:06.996Z,9.57
2023-04-15T16:15:35.828Z,8.43
2023-04-15T16:18:08.832Z,9.30
2023-04-15T16:20:35.911Z,8.75
2023-04-15T16:23:09.102Z,8.63
2023-04-15T16:25:36.385Z,7.73
2023-04-15T16:28:11.789Z,10.35
2023-04-15T16:30:51.874Z,7.38
2023-04-15T16:33:20.190Z,7.38
2023-04-15T16:35:54.610Z,8.05
2023-04-15T16:38:36.556Z,8.73
2023-04-15T16:41:04.913Z,6.93
2023-04-15T16:43:35.018Z,6.25
2023-04-15T16:46:03.383Z,6.75
2023-04-15T16:48:31.974Z,5.32
2023-04-15T16:51:01.909Z,5.55
2023-04-15T16:53:30.453Z,7.88
2023-04-15T16:56:00.738Z,7.40
2023-04-15T16:58:29.563Z,6.50
2023-04-15T17:01:00.567Z,6.20
2023-04-15T17:03:32.236Z,8.23
2023-04-15T17:06:03.158Z,7.47
2023-04-15T17:08:30.528Z,5.90
2023-04-15T17:11:01.385Z,6.25
2023-04-15T17:13:34.492Z,5.43
2023-04-15T17:16:03.304Z,5.53
2023-04-15T17:18:32.510Z,5.50
2023-04-15T17:21:01.744Z,5.82
2023-04-15T17:23:31.817Z,8.05
2023-04-15T17:26:02.161Z,7.18
2023-04-15T17:28:32.050Z,7.72
2023-04-15T17:31:00.756Z,6.10
2023-04-15T17:34:00.634Z,5.85
2023-04-15T17:36:16.835Z,5.53
2023-04-15T17:38:44.744Z,5.28
2023-04-15T17:41:12.459Z,7.43
2023-04-15T17:43:42.965Z,7.97
2023-04-15T17:46:19.877Z,8.63
2023-04-15T17:48:49.815Z,6.25
2023-04-15T17:51:22.866Z,7.63
2023-04-15T17:53:51.675Z,10.55
2023-04-15T17:56:20.431Z,10.00
2023-04-15T17:58:50.941Z,11.13
2023-04-15T18:01:20.067Z,10.07
2023-04-15T18:03:51.043Z,11.25
2023-04-15T18:06:32.033Z,13.55
2023-04-15T18:08:59.481Z,10.75
2023-04-15T18:11:29.638Z,9.88
2023-04-15T18:14:02.439Z,10.07
2023-04-15T18:16:35.060Z,9.32
2023-04-15T18:19:06.420Z,9.02
2023-04-15T18:21:35.448Z,11.45
2023-04-15T18:24:06.734Z,8.93
2023-04-15T18:26:36.610Z,14.32
2023-04-15T18:29:05.061Z,9.43
2023-04-15T18:31:34.119Z,11.55
2023-04-15T18:34:07.255Z,9.32
2023-04-15T18:36:35.555Z,12.63
2023-04-15T18:39:05.834Z,11.98
2023-04-15T18:41:37.392Z,10.77
2023-04-15T18:44:06.399Z,9.40
2023-04-15T18:46:33.982Z,10.38
2023-04-15T18:49:04.056Z,11.40
2023-04-15T18:51:33.329Z,11.48
2023-04-15T18:54:00.740Z,10.25
2023-04-15T18:56:29.834Z,8.52
2023-04-15T18:59:22.918Z,9.23
2023-04-15T19:01:46.925Z,11.10
2023-04-15T19:04:17.622Z,15.93
2023-04-15T19:06:45.892Z,13.52
2023-04-15T19:09:15.860Z,14.35
2023-04-15T19:11:43.992Z,13.57
2023-04-15T19:14:18.314Z,14.70
2023-04-15T19:16:49.597Z,16.30
2023-04-15T19:19:28.309Z,18.70
2023-04-15T19:21:56.760Z,16.27
2023-04-15T19:24:28.186Z,18.15
2023-04-15T19:26:55.320Z,15.27
2023-04-15T19:29:26.776Z,13.30
2023-04-15T19:31:54.158Z,23.08
2023-04-15T19:34:22.336Z,16.33
2023-04-15T19:36:50.025Z,16.08
2023-04-15T19:39:20.679Z,13.95
2023-04-15T19:41:48.594Z,15.60
2023-04-15T19:44:19.868Z,18.60
2023-04-15T19:46:52.652Z,16.33
2023-04-15T19:49:24.839Z,18.73
2023-04-15T19:51:56.042Z,23.27
2023-04-15T19:54:26.698Z,17.20
2023-04-15T19:56:56.952Z,15.05
2023-04-15T19:59:29.671Z,15.88
2023-04-15T20:02:02.373Z,14.80
2023-04-15T20:04:30.418Z,15.40
2023-04-15T20:07:05.505Z,15.38
2023-04-15T20:09:34.750Z,20.70
2023-04-15T20:12:46.011Z,13.82
2023-04-15T20:14:50.866Z,13.25
2023-04-15T20:17:19.971Z,15.73
2023-04-15T20:19:54.744Z,15.50
2023-04-15T20:22:25.291Z,17.10
2023-04-15T20:24:55.395Z,17.67
2023-04-15T20:27:23.240Z,17.05
2023-04-15T20:29:53.339Z,17.40
2023-04-15T20:32:33.190Z,17.70
2023-04-15T20:35:02.746Z,15.88
2023-04-15T20:37:37.366Z,16.55
2023-04-15T20:40:19.055Z,19.88
2023-04-15T20:42:47.726Z,15.52
2023-04-15T20:45:19.980Z,12.45
2023-04-15T20:50:34.171Z,13.52
2023-04-15T20:53:06.909Z,16.50
2023-04-15T20:55:39.565Z,12.48
2023-04-15T20:58:09.808Z,13.05
2023-04-15T21:00:40.582Z,11.90
2023-04-15T21:03:12.335Z,13.35
2023-04-15T21:05:40.208Z,17.15
2023-04-15T21:08:16.512Z,16.88
2023-04-15T21:10:45.686Z,13.65
2023-04-15T21:13:15.923Z,13.93
2023-04-15T21:15:43.320Z,13.25
2023-04-15T21:18:11.481Z,11.52
2023-04-15T21:20:42.068Z,11.07
2023-04-15T21:23:22.440Z,12.93
2023-04-15T21:25:50.206Z,10.80
2023-04-15T21:28:18.933Z,11.23
2023-04-15T21:30:47.323Z,10.00
2023-04-15T21:33:14.434Z,11.50
2023-04-15T21:35:41.884Z,8.75
2023-04-15T21:38:09.043Z,9.82
2023-04-15T21:40:40.482Z,9.65
2023-04-15T21:43:08.528Z,10.30
2023-04-15T21:45:39.503Z,14.35
2023-04-15T21:48:08.126Z,16.08
2023-04-15T21:50:38.857Z,15.48
2023-04-15T21:53:08.297Z,16.48
2023-04-15T21:55:36.244Z,14.73
2023-04-15T21:58:03.432Z,13.75
2023-04-15T22:00:32.469Z,15.93
2023-04-15T22:02:59.932Z,14.60
2023-04-15T22:05:27.179Z,14.23
2023-04-15T22:07:58.433Z,15.05
2023-04-15T22:10:25.469Z,21.73
2023-04-15T22:12:52.517Z,19.27
2023-04-15T22:15:19.716Z,16.15
2023-04-15T22:17:47.222Z,20.23
2023-04-15T22:20:14.559Z,14.95
2023-04-15T22:22:43.820Z,14.98
2023-04-15T22:25:12.186Z,18.40
2023-04-15T22:27:39.219Z,18.67
2023-04-15T22:30:07.044Z,23.35
2023-04-15T22:32:34.102Z,20.27
2023-04-15T22:35:01.575Z,24.48
2023-04-15T22:37:31.571Z,18.10
2023-04-15T22:39:59.164Z,22.58
2023-04-15T22:42:26.247Z,18.48
2023-04-15T22:44:53.433Z,22.60
2023-04-15T22:47:20.523Z,19.95
2023-04-15T22:49:47.663Z,25.73
2023-04-15T22:52:29.399Z,27.90
2023-04-15T22:54:57.879Z,27.83
2023-04-15T22:57:24.951Z,24.88
2023-04-15T22:59:51.952Z,32.22
2023-04-15T23:02:19.221Z,27.58
2023-04-15T23:04:46.653Z,23.65
2023-04-15T23:07:13.791Z,28.95
2023-04-15T23:09:40.808Z,31.05
2023-04-15T23:12:08.076Z,36.55
2023-04-15T23:14:35.109Z,27.30
2023-04-15T23:17:02.185Z,39.45
2023-04-15T23:19:29.287Z,32.85
2023-04-15T23:21:56.348Z,30.83
2023-04-15T23:24:23.418Z,34.08
2023-04-15T23:26:50.599Z,27.77
2023-04-15T23:29:18.230Z,42.35
2023-04-15T23:31:45.351Z,36.70
2023-04-15T23:34:12.477Z,32.05
2023-04-15T23:36:39.633Z,26.80
2023-04-15T23:39:06.765Z,32.00
2023-04-15T23:41:33.838Z,31.10
2023-04-15T23:44:00.888Z,25.67
2023-04-15T23:46:28.166Z,32.88
2023-04-15T23:48:55.240Z,37.22
2023-04-15T23:51:22.591Z,58.47
2023-04-15T23:53:50.100Z,35.35
2023-04-15T23:56:17.218Z,37.72
2023-04-15T23:58:44.682Z,27.33
